sensor_id;sensor_type;location;lat;lon;timestamp;pressure;altitude;pressure_sealevel;temperature;humidity
9225;BME280;4647;48.072;11.616;2023-05-24T00:00:09;95408.50;;;13.24;75.26
9225;BME280;4647;48.072;11.616;2023-05-24T00:02:41;95404.75;;;13.18;74.71
9225;BME280;4647;48.072;11.616;2023-05-24T00:05:10;95413.81;;;13.31;74.33
9225;BME280;4647;48.072;11.616;2023-05-24T00:07:39;95410.06;;;13.25;74.59
9225;BME280;4647;48.072;11.616;2023-05-24T00:10:09;95404.97;;;13.27;73.86
9225;BME280;4647;48.072;11.616;2023-05-24T00:12:40;95404.00;;;13.17;74.28
9225;BME280;4647;48.072;11.616;2023-05-24T00:15:09;95399.88;;;13.09;74.43
9225;BME280;4647;48.072;11.616;2023-05-24T00:17:37;95400.84;;;13.19;73.91
9225;BME280;4647;48.072;11.616;2023-05-24T00:20:08;95328.19;;;12.83;73.61
9225;BME280;4647;48.072;11.616;2023-05-24T00:22:38;95400.09;;;13.35;73.43
9225;BME280;4647;48.072;11.616;2023-05-24T00:25:07;95396.31;;;13.12;74.10
9225;BME280;4647;48.072;11.616;2023-05-24T00:27:36;95394.38;;;13.13;73.92
9225;BME280;4647;48.072;11.616;2023-05-24T00:30:08;95402.19;;;13.11;73.98
9225;BME280;4647;48.072;11.616;2023-05-24T00:32:36;95402.81;;;12.99;74.47
9225;BME280;4647;48.072;11.616;2023-05-24T00:35:05;95393.13;;;12.98;74.44
9225;BME280;4647;48.072;11.616;2023-05-24T00:37:34;95399.03;;;13.12;74.22
9225;BME280;4647;48.072;11.616;2023-05-24T00:40:06;95377.59;;;12.98;74.09
9225;BME280;4647;48.072;11.616;2023-05-24T00:42:34;95400.81;;;13.03;74.63
9225;BME280;4647;48.072;11.616;2023-05-24T00:45:04;95392.66;;;13.03;74.63
9225;BME280;4647;48.072;11.616;2023-05-24T00:47:35;95386.66;;;12.91;74.78
9225;BME280;4647;48.072;11.616;2023-05-24T00:50:06;95391.19;;;12.98;74.39
9225;BME280;4647;48.072;11.616;2023-05-24T00:52:36;95396.00;;;12.90;74.87
9225;BME280;4647;48.072;11.616;2023-05-24T00:55:05;95390.09;;;13.12;74.61
9225;BME280;4647;48.072;11.616;2023-05-24T00:57:35;95398.44;;;13.05;74.12
9225;BME280;4647;48.072;11.616;2023-05-24T01:00:05;95382.47;;;13.07;74.04
9225;BME280;4647;48.072;11.616;2023-05-24T01:02:38;95386.84;;;12.84;74.85
9225;BME280;4647;48.072;11.616;2023-05-24T01:05:07;95397.66;;;13.04;74.38
9225;BME280;4647;48.072;11.616;2023-05-24T01:07:44;95385.13;;;12.90;74.31
9225;BME280;4647;48.072;11.616;2023-05-24T01:10:24;95387.78;;;12.94;74.53
9225;BME280;4647;48.072;11.616;2023-05-24T01:13:02;95383.44;;;12.97;74.76
9225;BME280;4647;48.072;11.616;2023-05-24T01:15:39;95388.66;;;13.07;74.60
9225;BME280;4647;48.072;11.616;2023-05-24T01:18:15;95380.59;;;13.04;74.56
9225;BME280;4647;48.072;11.616;2023-05-24T01:20:51;95375.63;;;12.82;75.12
9225;BME280;4647;48.072;11.616;2023-05-24T01:23:34;95376.72;;;12.85;75.67
9225;BME280;4647;48.072;11.616;2023-05-24T01:26:19;95375.03;;;12.91;75.10
9225;BME280;4647;48.072;11.616;2023-05-24T01:28:55;95357.69;;;12.85;74.70
9225;BME280;4647;48.072;11.616;2023-05-24T01:31:24;95350.50;;;12.58;75.09
9225;BME280;4647;48.072;11.616;2023-05-24T01:33:52;95384.53;;;12.83;75.50
9225;BME280;4647;48.072;11.616;2023-05-24T01:36:21;95387.63;;;13.01;74.83
9225;BME280;4647;48.072;11.616;2023-05-24T01:38:49;95379.22;;;12.76;75.64
9225;BME280;4647;48.072;11.616;2023-05-24T01:41:26;95389.56;;;12.65;76.41
9225;BME280;4647;48.072;11.616;2023-05-24T01:44:10;95379.88;;;12.83;75.60
9225;BME280;4647;48.072;11.616;2023-05-24T01:46:41;95381.59;;;12.74;75.87
9225;BME280;4647;48.072;11.616;2023-05-24T01:49:14;95381.94;;;12.76;75.70
9225;BME280;4647;48.072;11.616;2023-05-24T01:51:48;95383.00;;;12.82;75.38
9225;BME280;4647;48.072;11.616;2023-05-24T01:54:19;95380.91;;;12.70;75.58
9225;BME280;4647;48.072;11.616;2023-05-24T01:56:48;95364.53;;;12.73;75.25
9225;BME280;4647;48.072;11.616;2023-05-24T01:59:23;95384.13;;;12.84;75.46
9225;BME280;4647;48.072;11.616;2023-05-24T02:01:53;95394.31;;;12.97;74.84
9225;BME280;4647;48.072;11.616;2023-05-24T02:04:23;95388.72;;;12.87;75.69
9225;BME280;4647;48.072;11.616;2023-05-24T02:06:52;95388.91;;;12.77;75.56
9225;BME280;4647;48.072;11.616;2023-05-24T02:09:20;95378.34;;;12.82;75.95
9225;BME280;4647;48.072;11.616;2023-05-24T02:11:48;95373.94;;;12.69;76.00
9225;BME280;4647;48.072;11.616;2023-05-24T02:14:17;95373.91;;;12.52;76.54
9225;BME280;4647;48.072;11.616;2023-05-24T02:16:48;95383.28;;;12.68;76.11
9225;BME280;4647;48.072;11.616;2023-05-24T02:19:18;95380.41;;;12.75;75.49
9225;BME280;4647;48.072;11.616;2023-05-24T02:21:46;95379.72;;;12.71;75.50
9225;BME280;4647;48.072;11.616;2023-05-24T02:24:15;95387.88;;;12.71;75.24
9225;BME280;4647;48.072;11.616;2023-05-24T02:26:44;95384.84;;;12.49;76.05
9225;BME280;4647;48.072;11.616;2023-05-24T02:29:12;95383.72;;;12.46;75.98
9225;BME280;4647;48.072;11.616;2023-05-24T02:31:40;95383.88;;;12.59;75.85
9225;BME280;4647;48.072;11.616;2023-05-24T02:34:11;95383.03;;;12.62;75.94
9225;BME280;4647;48.072;11.616;2023-05-24T02:36:40;95375.72;;;12.59;75.52
9225;BME280;4647;48.072;11.616;2023-05-24T02:39:10;95390.81;;;12.80;74.97
9225;BME280;4647;48.072;11.616;2023-05-24T02:41:38;95382.66;;;12.80;74.54
9225;BME280;4647;48.072;11.616;2023-05-24T02:44:06;95375.69;;;12.79;75.05
9225;BME280;4647;48.072;11.616;2023-05-24T02:46:35;95374.44;;;12.64;75.82
9225;BME280;4647;48.072;11.616;2023-05-24T02:49:03;95377.75;;;12.55;76.07
9225;BME280;4647;48.072;11.616;2023-05-24T02:51:34;95371.56;;;12.54;75.63
9225;BME280;4647;48.072;11.616;2023-05-24T02:54:04;95371.81;;;12.60;76.06
9225;BME280;4647;48.072;11.616;2023-05-24T02:56:32;95371.81;;;12.60;76.04
9225;BME280;4647;48.072;11.616;2023-05-24T02:59:01;95370.91;;;12.47;76.27
9225;BME280;4647;48.072;11.616;2023-05-24T03:01:30;95347.88;;;12.35;76.40
9225;BME280;4647;48.072;11.616;2023-05-24T03:04:00;95367.41;;;12.66;75.89
9225;BME280;4647;48.072;11.616;2023-05-24T03:06:28;95355.09;;;12.42;76.84
9225;BME280;4647;48.072;11.616;2023-05-24T03:08:59;95362.75;;;12.67;76.31
9225;BME280;4647;48.072;11.616;2023-05-24T03:11:28;95362.97;;;12.56;76.53
9225;BME280;4647;48.072;11.616;2023-05-24T03:13:56;95365.41;;;12.50;76.83
9225;BME280;4647;48.072;11.616;2023-05-24T03:16:25;95363.78;;;12.53;76.66
9225;BME280;4647;48.072;11.616;2023-05-24T03:18:53;95364.09;;;12.58;76.69
9225;BME280;4647;48.072;11.616;2023-05-24T03:21:24;95355.34;;;12.67;75.55
9225;BME280;4647;48.072;11.616;2023-05-24T03:23:52;95362.81;;;12.63;76.17
9225;BME280;4647;48.072;11.616;2023-05-24T03:26:23;95373.44;;;12.57;76.37
9225;BME280;4647;48.072;11.616;2023-05-24T03:28:52;95363.25;;;12.62;76.13
9225;BME280;4647;48.072;11.616;2023-05-24T03:31:20;95370.28;;;12.59;76.03
9225;BME280;4647;48.072;11.616;2023-05-24T03:33:50;95369.09;;;12.40;76.11
9225;BME280;4647;48.072;11.616;2023-05-24T03:36:19;95373.56;;;12.50;75.39
9225;BME280;4647;48.072;11.616;2023-05-24T03:38:50;95372.75;;;12.34;76.23
9225;BME280;4647;48.072;11.616;2023-05-24T03:41:19;95371.56;;;12.35;76.06
9225;BME280;4647;48.072;11.616;2023-05-24T03:43:50;95381.50;;;12.41;75.89
9225;BME280;4647;48.072;11.616;2023-05-24T03:46:18;95380.75;;;12.41;76.31
9225;BME280;4647;48.072;11.616;2023-05-24T03:48:47;95379.22;;;12.40;75.73
9225;BME280;4647;48.072;11.616;2023-05-24T03:51:15;95371.31;;;12.25;76.04
9225;BME280;4647;48.072;11.616;2023-05-24T03:53:44;95387.00;;;12.57;75.16
9225;BME280;4647;48.072;11.616;2023-05-24T03:56:12;95399.69;;;12.64;74.47
9225;BME280;4647;48.072;11.616;2023-05-24T03:58:41;95392.38;;;12.61;74.62
9225;BME280;4647;48.072;11.616;2023-05-24T04:01:12;95390.78;;;12.44;75.19
9225;BME280;4647;48.072;11.616;2023-05-24T04:03:40;95393.22;;;12.58;74.49
9225;BME280;4647;48.072;11.616;2023-05-24T04:06:10;95389.59;;;12.45;75.43
9225;BME280;4647;48.072;11.616;2023-05-24T04:08:38;95384.06;;;12.48;75.40
9225;BME280;4647;48.072;11.616;2023-05-24T04:11:07;95391.81;;;12.30;75.85
9225;BME280;4647;48.072;11.616;2023-05-24T04:13:36;95393.84;;;12.46;75.79
9225;BME280;4647;48.072;11.616;2023-05-24T04:16:04;95388.13;;;12.40;75.29
9225;BME280;4647;48.072;11.616;2023-05-24T04:18:36;95382.53;;;12.27;75.90
9225;BME280;4647;48.072;11.616;2023-05-24T04:21:05;95386.09;;;12.44;75.27
9225;BME280;4647;48.072;11.616;2023-05-24T04:23:33;95390.91;;;12.37;75.51
9225;BME280;4647;48.072;11.616;2023-05-24T04:26:02;95383.66;;;12.30;75.34
9225;BME280;4647;48.072;11.616;2023-05-24T04:28:31;95392.72;;;12.43;75.70
9225;BME280;4647;48.072;11.616;2023-05-24T04:31:02;95406.38;;;12.40;75.56
9225;BME280;4647;48.072;11.616;2023-05-24T04:33:31;95399.28;;;12.46;75.01
9225;BME280;4647;48.072;11.616;2023-05-24T04:36:02;95396.81;;;12.51;74.73
9225;BME280;4647;48.072;11.616;2023-05-24T04:38:30;95399.25;;;12.66;74.48
9225;BME280;4647;48.072;11.616;2023-05-24T04:41:01;95402.28;;;12.32;75.27
9225;BME280;4647;48.072;11.616;2023-05-24T04:43:30;95376.75;;;12.25;74.41
9225;BME280;4647;48.072;11.616;2023-05-24T04:45:59;95387.56;;;12.09;73.74
9225;BME280;4647;48.072;11.616;2023-05-24T04:48:27;95391.31;;;12.15;73.47
9225;BME280;4647;48.072;11.616;2023-05-24T04:50:56;95402.66;;;12.30;73.18
9225;BME280;4647;48.072;11.616;2023-05-24T04:53:27;95397.19;;;12.34;72.86
9225;BME280;4647;48.072;11.616;2023-05-24T04:55:57;95384.66;;;12.40;73.19
9225;BME280;4647;48.072;11.616;2023-05-24T04:58:25;95405.41;;;12.50;73.29
9225;BME280;4647;48.072;11.616;2023-05-24T05:00:54;95395.25;;;12.54;73.00
9225;BME280;4647;48.072;11.616;2023-05-24T05:03:22;95398.75;;;12.71;72.50
9225;BME280;4647;48.072;11.616;2023-05-24T05:05:50;95409.03;;;12.63;72.56
9225;BME280;4647;48.072;11.616;2023-05-24T05:08:19;95408.03;;;12.73;71.99
9225;BME280;4647;48.072;11.616;2023-05-24T05:10:50;95405.19;;;12.60;72.92
9225;BME280;4647;48.072;11.616;2023-05-24T05:13:18;95410.00;;;12.53;73.20
9225;BME280;4647;48.072;11.616;2023-05-24T05:15:47;95398.03;;;12.31;73.56
9225;BME280;4647;48.072;11.616;2023-05-24T05:18:16;95406.81;;;12.38;73.73
9225;BME280;4647;48.072;11.616;2023-05-24T05:20:44;95396.84;;;12.32;74.25
9225;BME280;4647;48.072;11.616;2023-05-24T05:23:13;95409.94;;;12.56;73.45
9225;BME280;4647;48.072;11.616;2023-05-24T05:25:41;95409.28;;;12.49;73.97
9225;BME280;4647;48.072;11.616;2023-05-24T05:28:12;95403.59;;;12.43;73.53
9225;BME280;4647;48.072;11.616;2023-05-24T05:30:41;95389.09;;;12.50;73.55
9225;BME280;4647;48.072;11.616;2023-05-24T05:33:09;95404.97;;;12.51;73.61
9225;BME280;4647;48.072;11.616;2023-05-24T05:35:37;95410.81;;;12.50;73.50
9225;BME280;4647;48.072;11.616;2023-05-24T05:38:06;95385.13;;;12.54;73.16
9225;BME280;4647;48.072;11.616;2023-05-24T05:40:34;95406.03;;;12.57;72.91
9225;BME280;4647;48.072;11.616;2023-05-24T05:43:03;95387.81;;;12.74;71.73
9225;BME280;4647;48.072;11.616;2023-05-24T05:45:35;95401.50;;;13.07;71.32
9225;BME280;4647;48.072;11.616;2023-05-24T05:48:03;95401.38;;;12.58;72.97
9225;BME280;4647;48.072;11.616;2023-05-24T05:50:32;95396.34;;;12.93;71.69
9225;BME280;4647;48.072;11.616;2023-05-24T05:53:00;95395.94;;;12.94;71.43
9225;BME280;4647;48.072;11.616;2023-05-24T05:55:29;95398.34;;;12.72;71.96
9225;BME280;4647;48.072;11.616;2023-05-24T05:57:57;95396.69;;;12.95;70.96
9225;BME280;4647;48.072;11.616;2023-05-24T06:00:25;95402.00;;;13.02;71.14
9225;BME280;4647;48.072;11.616;2023-05-24T06:02:57;95389.44;;;13.08;70.68
9225;BME280;4647;48.072;11.616;2023-05-24T06:05:25;95385.25;;;13.03;69.92
9225;BME280;4647;48.072;11.616;2023-05-24T06:07:53;95404.44;;;13.32;68.68
9225;BME280;4647;48.072;11.616;2023-05-24T06:10:22;95403.84;;;13.41;68.53
9225;BME280;4647;48.072;11.616;2023-05-24T06:12:50;95405.97;;;13.66;67.61
9225;BME280;4647;48.072;11.616;2023-05-24T06:15:19;95403.16;;;13.20;68.35
9225;BME280;4647;48.072;11.616;2023-05-24T06:17:48;95409.56;;;13.63;67.59
9225;BME280;4647;48.072;11.616;2023-05-24T06:20:19;95397.44;;;13.96;66.81
9225;BME280;4647;48.072;11.616;2023-05-24T06:22:48;95397.31;;;14.16;65.67
9225;BME280;4647;48.072;11.616;2023-05-24T06:25:16;95389.09;;;14.32;65.03
9225;BME280;4647;48.072;11.616;2023-05-24T06:27:48;95401.91;;;14.90;63.69
9225;BME280;4647;48.072;11.616;2023-05-24T06:30:17;95387.47;;;14.35;64.32
9225;BME280;4647;48.072;11.616;2023-05-24T06:32:46;95403.06;;;14.63;63.94
9225;BME280;4647;48.072;11.616;2023-05-24T06:35:14;95399.28;;;14.86;63.05
9225;BME280;4647;48.072;11.616;2023-05-24T06:37:45;95398.75;;;15.04;62.17
9225;BME280;4647;48.072;11.616;2023-05-24T06:40:13;95381.50;;;14.82;62.59
9225;BME280;4647;48.072;11.616;2023-05-24T06:42:42;95373.88;;;15.02;62.31
9225;BME280;4647;48.072;11.616;2023-05-24T06:45:10;95389.69;;;15.58;60.53
9225;BME280;4647;48.072;11.616;2023-05-24T06:47:39;95401.00;;;16.29;57.82
9225;BME280;4647;48.072;11.616;2023-05-24T06:50:08;95390.50;;;16.49;56.67
9225;BME280;4647;48.072;11.616;2023-05-24T06:52:36;95409.22;;;17.26;55.31
9225;BME280;4647;48.072;11.616;2023-05-24T06:55:08;95395.25;;;17.02;55.58
9225;BME280;4647;48.072;11.616;2023-05-24T06:57:37;95400.28;;;17.34;55.21
9225;BME280;4647;48.072;11.616;2023-05-24T07:00:06;95404.34;;;17.21;55.37
9225;BME280;4647;48.072;11.616;2023-05-24T07:02:36;95390.06;;;17.26;54.81
9225;BME280;4647;48.072;11.616;2023-05-24T07:05:06;95411.69;;;17.73;53.79
9225;BME280;4647;48.072;11.616;2023-05-24T07:07:37;95399.75;;;18.16;52.63
9225;BME280;4647;48.072;11.616;2023-05-24T07:10:09;95415.47;;;18.25;52.31
9225;BME280;4647;48.072;11.616;2023-05-24T07:12:38;95409.66;;;18.04;52.52
9225;BME280;4647;48.072;11.616;2023-05-24T07:15:07;95410.25;;;18.18;51.76
9225;BME280;4647;48.072;11.616;2023-05-24T07:17:36;95418.19;;;18.16;52.80
9225;BME280;4647;48.072;11.616;2023-05-24T07:20:06;95421.06;;;18.21;52.03
9225;BME280;4647;48.072;11.616;2023-05-24T07:22:38;95422.53;;;17.76;53.58
9225;BME280;4647;48.072;11.616;2023-05-24T07:25:10;95420.72;;;17.83;53.26
9225;BME280;4647;48.072;11.616;2023-05-24T07:27:39;95402.13;;;17.77;52.70
9225;BME280;4647;48.072;11.616;2023-05-24T07:30:08;95414.94;;;16.66;55.34
9225;BME280;4647;48.072;11.616;2023-05-24T07:32:37;95420.81;;;16.77;54.80
9225;BME280;4647;48.072;11.616;2023-05-24T07:35:09;95414.78;;;16.82;55.27
9225;BME280;4647;48.072;11.616;2023-05-24T07:37:38;95408.34;;;16.76;54.69
9225;BME280;4647;48.072;11.616;2023-05-24T07:40:10;95412.84;;;17.23;53.74
9225;BME280;4647;48.072;11.616;2023-05-24T07:42:39;95409.81;;;18.10;51.56
9225;BME280;4647;48.072;11.616;2023-05-24T07:45:08;95417.88;;;18.14;51.87
9225;BME280;4647;48.072;11.616;2023-05-24T07:47:38;95325.16;;;17.44;51.13
9225;BME280;4647;48.072;11.616;2023-05-24T07:50:08;95423.34;;;18.04;50.69
9225;BME280;4647;48.072;11.616;2023-05-24T07:52:37;95421.69;;;17.67;51.78
9225;BME280;4647;48.072;11.616;2023-05-24T07:55:06;95423.22;;;18.54;49.99
9225;BME280;4647;48.072;11.616;2023-05-24T07:57:38;95415.16;;;18.32;49.83
9225;BME280;4647;48.072;11.616;2023-05-24T08:00:08;95418.94;;;18.16;50.70
9225;BME280;4647;48.072;11.616;2023-05-24T08:02:41;95416.19;;;17.17;52.67
9225;BME280;4647;48.072;11.616;2023-05-24T08:05:11;95417.72;;;17.59;52.33
9225;BME280;4647;48.072;11.616;2023-05-24T13:07:41;95462.25;;;16.53;51.24
9225;BME280;4647;48.072;11.616;2023-05-24T13:10:10;95459.34;;;16.82;50.55
9225;BME280;4647;48.072;11.616;2023-05-24T13:12:39;95469.34;;;17.29;48.36
9225;BME280;4647;48.072;11.616;2023-05-24T13:15:09;95468.94;;;16.87;48.40
9225;BME280;4647;48.072;11.616;2023-05-24T13:17:38;95451.88;;;16.83;48.06
9225;BME280;4647;48.072;11.616;2023-05-24T13:20:07;95464.03;;;16.47;49.10
9225;BME280;4647;48.072;11.616;2023-05-24T13:22:39;95460.78;;;16.74;48.35
9225;BME280;4647;48.072;11.616;2023-05-24T13:25:11;95460.59;;;17.12;46.77
9225;BME280;4647;48.072;11.616;2023-05-24T13:27:40;95471.34;;;16.50;48.03
9225;BME280;4647;48.072;11.616;2023-05-24T13:30:09;95456.63;;;17.13;47.09
9225;BME280;4647;48.072;11.616;2023-05-24T13:32:38;95462.34;;;17.28;47.36
9225;BME280;4647;48.072;11.616;2023-05-24T13:35:08;95460.56;;;17.34;46.87
9225;BME280;4647;48.072;11.616;2023-05-24T13:37:36;95460.72;;;17.40;46.35
9225;BME280;4647;48.072;11.616;2023-05-24T13:40:08;95463.84;;;16.98;48.00
9225;BME280;4647;48.072;11.616;2023-05-24T13:42:37;95474.47;;;16.96;48.03
9225;BME280;4647;48.072;11.616;2023-05-24T13:45:07;95472.63;;;17.15;47.02
9225;BME280;4647;48.072;11.616;2023-05-24T13:47:36;95474.59;;;17.14;47.53
9225;BME280;4647;48.072;11.616;2023-05-24T13:50:08;95472.13;;;17.38;45.68
9225;BME280;4647;48.072;11.616;2023-05-24T13:52:38;95464.03;;;17.04;47.32
9225;BME280;4647;48.072;11.616;2023-05-24T13:55:09;95478.66;;;16.53;46.47
9225;BME280;4647;48.072;11.616;2023-05-24T13:57:38;95476.03;;;16.28;47.63
9225;BME280;4647;48.072;11.616;2023-05-24T14:00:07;95478.94;;;15.99;49.85
9225;BME280;4647;48.072;11.616;2023-05-24T14:02:36;95481.28;;;16.35;47.83
9225;BME280;4647;48.072;11.616;2023-05-24T14:05:05;95478.72;;;15.93;48.73
9225;BME280;4647;48.072;11.616;2023-05-24T14:07:34;95477.28;;;16.02;49.77
9225;BME280;4647;48.072;11.616;2023-05-24T14:10:03;95472.78;;;16.20;49.55
9225;BME280;4647;48.072;11.616;2023-05-24T14:12:34;95472.25;;;16.47;48.14
9225;BME280;4647;48.072;11.616;2023-05-24T14:15:03;95466.44;;;16.58;47.34
9225;BME280;4647;48.072;11.616;2023-05-24T14:17:32;95466.00;;;16.47;47.64
9225;BME280;4647;48.072;11.616;2023-05-24T14:20:03;95472.19;;;16.38;47.19
9225;BME280;4647;48.072;11.616;2023-05-24T14:22:31;95478.34;;;16.51;46.67
9225;BME280;4647;48.072;11.616;2023-05-24T14:25:00;95480.28;;;16.29;47.02
9225;BME280;4647;48.072;11.616;2023-05-24T14:27:29;95474.72;;;16.54;47.07
9225;BME280;4647;48.072;11.616;2023-05-24T14:30:03;95458.81;;;16.40;48.12
9225;BME280;4647;48.072;11.616;2023-05-24T14:32:32;95473.66;;;16.52;48.39
9225;BME280;4647;48.072;11.616;2023-05-24T14:35:01;95468.31;;;16.48;47.17
9225;BME280;4647;48.072;11.616;2023-05-24T14:37:29;95476.69;;;16.67;46.77
9225;BME280;4647;48.072;11.616;2023-05-24T14:39:59;95467.28;;;16.90;46.39
9225;BME280;4647;48.072;11.616;2023-05-24T14:42:27;95468.00;;;16.46;47.65
9225;BME280;4647;48.072;11.616;2023-05-24T14:44:56;95464.28;;;16.40;47.58
9225;BME280;4647;48.072;11.616;2023-05-24T14:47:27;95469.13;;;16.71;47.59
9225;BME280;4647;48.072;11.616;2023-05-24T14:49:56;95460.56;;;16.81;46.20
9225;BME280;4647;48.072;11.616;2023-05-24T14:52:24;95470.72;;;16.81;45.39
9225;BME280;4647;48.072;11.616;2023-05-24T14:54:53;95474.28;;;16.91;44.90
9225;BME280;4647;48.072;11.616;2023-05-24T14:57:21;95465.34;;;16.99;44.74
9225;BME280;4647;48.072;11.616;2023-05-24T14:59:50;95470.34;;;16.92;44.55
9225;BME280;4647;48.072;11.616;2023-05-24T15:02:20;95468.34;;;17.14;44.62
9225;BME280;4647;48.072;11.616;2023-05-24T15:04:51;95459.44;;;17.01;44.09
9225;BME280;4647;48.072;11.616;2023-05-24T15:07:20;95466.63;;;17.29;43.83
9225;BME280;4647;48.072;11.616;2023-05-24T15:09:48;95458.97;;;17.24;43.80
9225;BME280;4647;48.072;11.616;2023-05-24T15:12:17;95459.50;;;17.10;44.76
9225;BME280;4647;48.072;11.616;2023-05-24T15:14:50;95463.59;;;17.05;43.81
9225;BME280;4647;48.072;11.616;2023-05-24T15:17:18;95456.50;;;17.17;44.06
9225;BME280;4647;48.072;11.616;2023-05-24T15:19:46;95457.88;;;17.22;43.69
9225;BME280;4647;48.072;11.616;2023-05-24T15:22:17;95460.56;;;16.81;44.57
9225;BME280;4647;48.072;11.616;2023-05-24T15:24:46;95452.53;;;16.87;44.46
9225;BME280;4647;48.072;11.616;2023-05-24T15:27:15;95442.94;;;17.13;41.97
9225;BME280;4647;48.072;11.616;2023-05-24T15:29:43;95454.63;;;17.36;42.20
9225;BME280;4647;48.072;11.616;2023-05-24T15:32:12;95449.69;;;17.53;41.17
9225;BME280;4647;48.072;11.616;2023-05-24T15:34:40;95453.00;;;17.78;41.59
9225;BME280;4647;48.072;11.616;2023-05-24T15:37:10;95450.28;;;17.88;40.53
9225;BME280;4647;48.072;11.616;2023-05-24T15:39:41;95453.16;;;17.84;41.50
9225;BME280;4647;48.072;11.616;2023-05-24T15:42:13;95460.22;;;18.03;39.99
9225;BME280;4647;48.072;11.616;2023-05-24T15:44:44;95438.22;;;17.76;40.64
9225;BME280;4647;48.072;11.616;2023-05-24T15:47:14;95446.00;;;17.77;40.42
9225;BME280;4647;48.072;11.616;2023-05-24T15:49:43;95445.41;;;17.92;39.54
9225;BME280;4647;48.072;11.616;2023-05-24T15:52:11;95458.38;;;18.00;39.77
9225;BME280;4647;48.072;11.616;2023-05-24T15:54:42;95444.72;;;18.46;37.79
9225;BME280;4647;48.072;11.616;2023-05-24T15:57:14;95443.78;;;18.13;38.98
9225;BME280;4647;48.072;11.616;2023-05-24T15:59:43;95447.91;;;18.45;39.11
9225;BME280;4647;48.072;11.616;2023-05-24T16:02:12;95447.03;;;18.48;39.62
9225;BME280;4647;48.072;11.616;2023-05-24T16:04:40;95425.66;;;18.88;38.43
9225;BME280;4647;48.072;11.616;2023-05-24T16:07:09;95448.22;;;19.01;38.75
9225;BME280;4647;48.072;11.616;2023-05-24T16:09:39;95433.91;;;18.61;39.79
9225;BME280;4647;48.072;11.616;2023-05-24T16:12:12;95441.34;;;19.06;38.44
9225;BME280;4647;48.072;11.616;2023-05-24T16:14:40;95448.28;;;19.35;39.01
9225;BME280;4647;48.072;11.616;2023-05-24T16:17:09;95440.41;;;19.09;38.58
9225;BME280;4647;48.072;11.616;2023-05-24T16:19:37;95429.78;;;18.38;40.79
9225;BME280;4647;48.072;11.616;2023-05-24T16:22:06;95437.84;;;18.41;41.06
9225;BME280;4647;48.072;11.616;2023-05-24T16:24:35;95437.56;;;18.30;41.75
9225;BME280;4647;48.072;11.616;2023-05-24T16:27:04;95437.25;;;18.37;41.61
9225;BME280;4647;48.072;11.616;2023-05-24T16:29:36;95432.84;;;17.72;42.99
9225;BME280;4647;48.072;11.616;2023-05-24T16:32:05;95434.97;;;17.68;43.22
9225;BME280;4647;48.072;11.616;2023-05-24T16:34:34;95443.00;;;18.03;42.96
9225;BME280;4647;48.072;11.616;2023-05-24T16:37:05;95443.75;;;18.03;42.85
9225;BME280;4647;48.072;11.616;2023-05-24T16:39:36;95430.38;;;18.05;41.67
9225;BME280;4647;48.072;11.616;2023-05-24T16:42:05;95415.41;;;17.97;42.19
9225;BME280;4647;48.072;11.616;2023-05-24T16:44:36;95430.09;;;18.22;41.91
9225;BME280;4647;48.072;11.616;2023-05-24T16:47:06;95415.28;;;18.37;42.33
9225;BME280;4647;48.072;11.616;2023-05-24T16:49:35;95422.59;;;18.40;42.28
9225;BME280;4647;48.072;11.616;2023-05-24T16:52:06;95415.59;;;18.58;42.24
9225;BME280;4647;48.072;11.616;2023-05-24T16:54:35;95431.44;;;18.35;42.97
9225;BME280;4647;48.072;11.616;2023-05-24T16:57:03;95434.75;;;17.94;42.48
9225;BME280;4647;48.072;11.616;2023-05-24T16:59:48;95427.75;;;17.53;44.26
9225;BME280;4647;48.072;11.616;2023-05-24T17:02:21;95435.13;;;17.34;45.20
9225;BME280;4647;48.072;11.616;2023-05-24T17:04:49;95430.75;;;17.05;46.47
9225;BME280;4647;48.072;11.616;2023-05-24T17:07:17;95436.25;;;17.14;46.30
9225;BME280;4647;48.072;11.616;2023-05-24T17:09:46;95429.78;;;16.77;47.38
9225;BME280;4647;48.072;11.616;2023-05-24T17:12:15;95433.50;;;16.83;48.09
9225;BME280;4647;48.072;11.616;2023-05-24T17:14:48;95426.38;;;16.30;48.80
9225;BME280;4647;48.072;11.616;2023-05-24T17:17:20;95426.16;;;16.24;48.91
9225;BME280;4647;48.072;11.616;2023-05-24T17:19:48;95436.06;;;16.43;49.11
9225;BME280;4647;48.072;11.616;2023-05-24T17:22:17;95432.91;;;16.10;50.16
9225;BME280;4647;48.072;11.616;2023-05-24T17:24:47;95436.53;;;15.82;50.12
9225;BME280;4647;48.072;11.616;2023-05-24T17:27:17;95441.06;;;15.63;51.21
9225;BME280;4647;48.072;11.616;2023-05-24T17:29:48;95428.69;;;15.58;51.43
9225;BME280;4647;48.072;11.616;2023-05-24T17:32:17;95436.91;;;15.71;51.52
9225;BME280;4647;48.072;11.616;2023-05-24T17:34:45;95444.19;;;15.49;52.64
9225;BME280;4647;48.072;11.616;2023-05-24T17:37:14;95441.56;;;15.32;53.01
9225;BME280;4647;48.072;11.616;2023-05-24T17:39:42;95439.94;;;15.22;53.58
9225;BME280;4647;48.072;11.616;2023-05-24T17:42:11;95438.59;;;15.01;53.60
9225;BME280;4647;48.072;11.616;2023-05-24T17:44:40;95439.31;;;14.77;54.12
9225;BME280;4647;48.072;11.616;2023-05-24T17:47:16;95430.81;;;14.87;53.86
9225;BME280;4647;48.072;11.616;2023-05-24T17:49:45;95428.13;;;15.00;53.87
9225;BME280;4647;48.072;11.616;2023-05-24T17:52:13;95407.50;;;14.99;53.59
9225;BME280;4647;48.072;11.616;2023-05-24T17:54:42;95430.84;;;15.00;54.13
9225;BME280;4647;48.072;11.616;2023-05-24T17:57:10;95442.13;;;15.15;53.87
9225;BME280;4647;48.072;11.616;2023-05-24T17:59:39;95442.09;;;15.02;55.03
9225;BME280;4647;48.072;11.616;2023-05-24T18:02:07;95437.72;;;14.92;54.57
9225;BME280;4647;48.072;11.616;2023-05-24T18:04:38;95436.41;;;14.96;53.86
9225;BME280;4647;48.072;11.616;2023-05-24T18:07:07;95441.06;;;14.83;54.77
9225;BME280;4647;48.072;11.616;2023-05-24T18:09:35;95441.28;;;14.89;54.33
9225;BME280;4647;48.072;11.616;2023-05-24T18:12:04;95452.56;;;14.91;54.48
9225;BME280;4647;48.072;11.616;2023-05-24T18:14:33;95455.69;;;14.89;54.58
9225;BME280;4647;48.072;11.616;2023-05-24T18:17:02;95468.44;;;14.67;55.16
9225;BME280;4647;48.072;11.616;2023-05-24T18:19:30;95462.88;;;14.70;55.30
9225;BME280;4647;48.072;11.616;2023-05-24T18:22:02;95448.81;;;14.72;55.05